Holt, FL (32564)

4:42 PM CDT on June 24, 2017 (GMT -0500)
Floridale | | Change Station
Active Advisory: Flood Warning

Elev 174 ft 30.68 °N, 86.84 °W | Updated 0 second ago

Mostly Cloudy
Mostly Cloudy
86.5 °F
Feels Like 98 °F
N
0.0
Wind Variable Wind from SSW
Gusts 2.0 mph

Today
High -- | Low -- °F
--% Chance of Precip.
Yesterday
High -- | Low -- °F
Precip. -- in
Pressure 30.01 in
Visibility 10.0 miles
Clouds Few 3700 ft
Scattered Clouds 6000 ft
Heat Index 98 °F
Dew Point 77 °F
Humidity 74%
Rainfall 0.00 in
Snow Depth Not available.
5:45 AM 7:53 PM
New Moon, 1% visible
METAR KCEW 242053Z AUTO VRB03KT 10SM FEW037 SCT060 32/22 A3003 RMK AO2 SLP163 60000 T03170222 57011
Pressure 30.01 in
Visibility 10.0 miles
Clouds Few 3700 ft
Scattered Clouds 6000 ft
Heat Index 98 °F
Dew Point 77 °F
Humidity 74%
Rainfall 0.00 in
Snow Depth Not available.
5:45 AM 7:53 PM
New Moon, 1% visible
METAR KCEW 242053Z AUTO VRB03KT 10SM FEW037 SCT060 32/22 A3003 RMK AO2 SLP163 60000 T03170222 57011

Get Your Daily Forecast Email!

Thanks for signing up!

Be on the lookout for a verification email in your inbox.

You'll start receiving severe weather alerts in your inbox..

×

10-Day Weather Forecast

Almanac

Astronomy

Jun. 24, 2017 Rise Set
Actual Time
Civil Twilight
Nautical Twilight
Astronomical Twilight
Moon
Length of Visible Light
Length of Day
Tomorrow will be .
, % of the Moon is Illuminated

Today's Extremes

State Highs State Lows

Community

WunderPhotos

Category 6

Welcome to Category 6. This is the collective home for Weather Underground's featured writeups by Dr. Jeff Masters (right), Bob Henson (left), Chris Burt, and other regular contributors.

Nearby

Air Quality

  Air Quality AQ Index Pollutant
Not available.

Snow Depth

Station Depth Elevation

Earthquake Activity

City Distance Mag. Time & Date
Minimum magnitude displayed is 2.5.

Coastal Water Temperatures

Place Temperature

Stations

Nearby Weather Stations

Station Location Temp. Windchill Dew Point Humidity Wind Precip. Elev Updated Type
                   

Watches & Warnings

Flood Warning
Issued: 10:23 AM CDT Jun. 24, 2017 – National Weather Service

The National Weather Service in Mobile has issued a

* Flood Warning for
the shoal river near Crestview
* from this morning until Sunday morning
* at 9 am Saturday the stage was... 8.2 feet.
* Minor flooding is occurring and minor flooding is forecast
* flood stage is 8 feet.
* The river will remain steady around 8.2 feet through this afternoon before
falling this evening. The river will fall below flood stage after midnight tomorrow.
* At 8 feet... minor flooding of low lying areas.


Lat... Lon 3078 8650 3078 8649 3069 8653 3069 8663
3070 8663 3070 8655